sensor_id;sensor_type;location;lat;lon;timestamp;pressure;altitude;pressure_sealevel;temperature;humidity
13934;BME280;7039;52.168;9.866;2023-02-07T00:00:08;103119.75;;;0.58;81.79
13934;BME280;7039;52.168;9.866;2023-02-07T00:02:37;103127.69;;;0.40;81.34
13934;BME280;7039;52.168;9.866;2023-02-07T00:05:04;103127.03;;;0.46;81.38
13934;BME280;7039;52.168;9.866;2023-02-07T00:07:31;103133.97;;;0.49;81.62
13934;BME280;7039;52.168;9.866;2023-02-07T00:09:58;103132.78;;;0.39;81.46
13934;BME280;7039;52.168;9.866;2023-02-07T00:12:24;103131.31;;;0.46;81.62
13934;BME280;7039;52.168;9.866;2023-02-07T00:14:52;103136.75;;;0.55;81.49
13934;BME280;7039;52.168;9.866;2023-02-07T00:17:19;103133.88;;;0.46;80.93
13934;BME280;7039;52.168;9.866;2023-02-07T00:19:45;103127.53;;;0.36;81.61
13934;BME280;7039;52.168;9.866;2023-02-07T00:22:12;103117.97;;;0.32;81.62
13934;BME280;7039;52.168;9.866;2023-02-07T00:24:38;103112.28;;;0.40;81.77
13934;BME280;7039;52.168;9.866;2023-02-07T00:27:05;103112.28;;;0.40;81.32
13934;BME280;7039;52.168;9.866;2023-02-07T00:29:32;103117.16;;;0.09;81.97
13934;BME280;7039;52.168;9.866;2023-02-07T00:32:00;103123.59;;;0.22;82.07
13934;BME280;7039;52.168;9.866;2023-02-07T00:34:27;103107.38;;;0.23;81.89
13934;BME280;7039;52.168;9.866;2023-02-07T00:36:55;103115.50;;;0.11;81.57
13934;BME280;7039;52.168;9.866;2023-02-07T00:39:22;103109.06;;;0.22;81.65
13934;BME280;7039;52.168;9.866;2023-02-07T00:41:49;103104.44;;;0.12;81.84
13934;BME280;7039;52.168;9.866;2023-02-07T00:44:16;103103.63;;;0.13;81.96
13934;BME280;7039;52.168;9.866;2023-02-07T00:46:42;103107.94;;;0.14;82.05
13934;BME280;7039;52.168;9.866;2023-02-07T00:49:10;103108.81;;;0.14;81.89
13934;BME280;7039;52.168;9.866;2023-02-07T00:51:36;103110.22;;;0.06;81.95
13934;BME280;7039;52.168;9.866;2023-02-07T00:54:03;103111.16;;;0.08;82.83
13934;BME280;7039;52.168;9.866;2023-02-07T00:56:30;103117.38;;;0.15;82.20
13934;BME280;7039;52.168;9.866;2023-02-07T00:58:58;103116.69;;;0.19;81.90
13934;BME280;7039;52.168;9.866;2023-02-07T01:01:25;103109.09;;;-0.02;82.15
13934;BME280;7039;52.168;9.866;2023-02-07T01:03:52;103117.22;;;0.10;82.64
13934;BME280;7039;52.168;9.866;2023-02-07T01:06:20;103112.31;;;0.16;82.09
13934;BME280;7039;52.168;9.866;2023-02-07T01:08:47;103111.59;;;0.20;81.90
13934;BME280;7039;52.168;9.866;2023-02-07T01:11:15;103110.06;;;0.26;81.53
13934;BME280;7039;52.168;9.866;2023-02-07T01:13:43;103125.63;;;0.30;81.67
13934;BME280;7039;52.168;9.866;2023-02-07T01:16:16;103117.81;;;0.27;81.70
13934;BME280;7039;52.168;9.866;2023-02-07T01:18:43;103111.53;;;0.19;81.33
13934;BME280;7039;52.168;9.866;2023-02-07T01:21:13;103112.25;;;0.15;81.75
13934;BME280;7039;52.168;9.866;2023-02-07T01:23:41;103109.59;;;0.12;81.89
13934;BME280;7039;52.168;9.866;2023-02-07T01:26:10;103101.06;;;-0.11;82.39
13934;BME280;7039;52.168;9.866;2023-02-07T01:28:37;103107.09;;;-0.09;82.17
13934;BME280;7039;52.168;9.866;2023-02-07T01:31:06;103101.59;;;0.04;82.79
13934;BME280;7039;52.168;9.866;2023-02-07T01:33:33;103108.78;;;-0.10;82.57
13934;BME280;7039;52.168;9.866;2023-02-07T01:36:04;103095.16;;;-0.09;82.59
13934;BME280;7039;52.168;9.866;2023-02-07T01:38:31;103087.81;;;0.01;82.35
13934;BME280;7039;52.168;9.866;2023-02-07T01:40:59;103089.97;;;-0.10;82.09
13934;BME280;7039;52.168;9.866;2023-02-07T01:43:26;103084.50;;;-0.19;82.04
13934;BME280;7039;52.168;9.866;2023-02-07T01:45:53;103083.97;;;-0.11;82.57
13934;BME280;7039;52.168;9.866;2023-02-07T01:48:22;103083.13;;;-0.10;82.88
13934;BME280;7039;52.168;9.866;2023-02-07T01:50:52;103080.09;;;-0.46;83.41
13934;BME280;7039;52.168;9.866;2023-02-07T01:53:23;103076.94;;;-0.39;83.51
13934;BME280;7039;52.168;9.866;2023-02-07T01:55:54;103081.13;;;-0.41;83.95
13934;BME280;7039;52.168;9.866;2023-02-07T01:58:24;103074.09;;;-0.24;83.61
13934;BME280;7039;52.168;9.866;2023-02-07T02:00:51;103076.66;;;-0.24;82.98
13934;BME280;7039;52.168;9.866;2023-02-07T02:03:17;103081.28;;;-0.14;82.37
13934;BME280;7039;52.168;9.866;2023-02-07T02:05:44;103087.06;;;-0.19;82.46
13934;BME280;7039;52.168;9.866;2023-02-07T02:08:11;103080.06;;;-0.24;82.66
13934;BME280;7039;52.168;9.866;2023-02-07T02:10:56;103092.47;;;-0.12;82.54
13934;BME280;7039;52.168;9.866;2023-02-07T02:13:32;103087.84;;;-0.22;82.60
13934;BME280;7039;52.168;9.866;2023-02-07T02:16:09;103072.13;;;-0.31;82.94
13934;BME280;7039;52.168;9.866;2023-02-07T02:21:57;103058.47;;;-0.75;84.46
13934;BME280;7039;52.168;9.866;2023-02-07T02:25:03;103054.63;;;-0.64;84.61
13934;BME280;7039;52.168;9.866;2023-02-07T02:30:54;103051.44;;;-0.58;84.02
13934;BME280;7039;52.168;9.866;2023-02-07T02:33:32;103051.91;;;-0.46;83.46
13934;BME280;7039;52.168;9.866;2023-02-07T02:36:09;103055.72;;;-0.35;82.86
13934;BME280;7039;52.168;9.866;2023-02-07T02:38:44;103058.38;;;-0.33;82.47
13934;BME280;7039;52.168;9.866;2023-02-07T02:41:20;103057.19;;;-0.42;82.08
13934;BME280;7039;52.168;9.866;2023-02-07T02:43:51;103061.97;;;-0.51;81.66
13934;BME280;7039;52.168;9.866;2023-02-07T02:46:21;103059.31;;;-0.54;82.28
13934;BME280;7039;52.168;9.866;2023-02-07T02:48:51;103058.78;;;-0.45;82.79
13934;BME280;7039;52.168;9.866;2023-02-07T02:51:18;103061.34;;;-0.45;82.28
13934;BME280;7039;52.168;9.866;2023-02-07T02:53:52;103061.28;;;-0.47;82.61
13934;BME280;7039;52.168;9.866;2023-02-07T02:56:42;103062.56;;;-0.35;82.48
13934;BME280;7039;52.168;9.866;2023-02-07T02:59:33;103055.56;;;-0.39;82.20
13934;BME280;7039;52.168;9.866;2023-02-07T03:02:13;103048.28;;;-0.51;81.48
13934;BME280;7039;52.168;9.866;2023-02-07T03:04:53;103041.56;;;-0.72;81.82
13934;BME280;7039;52.168;9.866;2023-02-07T03:07:39;103041.66;;;-0.69;81.78
13934;BME280;7039;52.168;9.866;2023-02-07T03:10:13;103033.88;;;-0.72;82.84
13934;BME280;7039;52.168;9.866;2023-02-07T03:12:48;103036.19;;;-0.55;82.45
13934;BME280;7039;52.168;9.866;2023-02-07T03:15:21;103034.97;;;-0.65;82.29
13934;BME280;7039;52.168;9.866;2023-02-07T03:17:55;103032.75;;;-0.78;82.28
13934;BME280;7039;52.168;9.866;2023-02-07T03:20:28;103034.22;;;-0.85;82.87
13934;BME280;7039;52.168;9.866;2023-02-07T03:22:59;103039.97;;;-0.68;82.47
13934;BME280;7039;52.168;9.866;2023-02-07T03:25:28;103034.09;;;-0.66;82.01
13934;BME280;7039;52.168;9.866;2023-02-07T03:27:56;103041.13;;;-0.60;81.78
13934;BME280;7039;52.168;9.866;2023-02-07T03:30:29;103033.69;;;-0.54;81.23
13934;BME280;7039;52.168;9.866;2023-02-07T03:33:01;103039.78;;;-0.50;80.98
13934;BME280;7039;52.168;9.866;2023-02-07T03:35:40;103044.91;;;-0.50;80.70
13934;BME280;7039;52.168;9.866;2023-02-07T03:38:09;103042.00;;;-0.59;81.23
13934;BME280;7039;52.168;9.866;2023-02-07T03:40:39;103046.25;;;-0.60;81.42
13934;BME280;7039;52.168;9.866;2023-02-07T03:43:10;103051.56;;;-0.55;81.63
13934;BME280;7039;52.168;9.866;2023-02-07T03:45:39;103049.09;;;-0.52;81.04
13934;BME280;7039;52.168;9.866;2023-02-07T03:48:07;103043.00;;;-0.56;81.22
13934;BME280;7039;52.168;9.866;2023-02-07T03:50:37;103040.25;;;-0.60;81.35
13934;BME280;7039;52.168;9.866;2023-02-07T03:53:04;103034.09;;;-0.66;81.40
13934;BME280;7039;52.168;9.866;2023-02-07T03:55:31;103030.66;;;-0.66;81.48
13934;BME280;7039;52.168;9.866;2023-02-07T03:57:58;103028.75;;;-0.72;81.50
13934;BME280;7039;52.168;9.866;2023-02-07T04:00:24;103033.88;;;-0.72;81.37
13934;BME280;7039;52.168;9.866;2023-02-07T04:02:51;103026.75;;;-0.79;81.11
13934;BME280;7039;52.168;9.866;2023-02-07T04:05:18;103018.75;;;-1.09;81.65
13934;BME280;7039;52.168;9.866;2023-02-07T04:07:46;103018.03;;;-1.49;82.47
13934;BME280;7039;52.168;9.866;2023-02-07T04:10:16;103022.59;;;-1.62;83.17
13934;BME280;7039;52.168;9.866;2023-02-07T04:12:45;103027.97;;;-1.56;83.35
13934;BME280;7039;52.168;9.866;2023-02-07T04:15:12;103029.59;;;-1.37;83.14
13934;BME280;7039;52.168;9.866;2023-02-07T04:17:40;103025.34;;;-1.37;82.53
13934;BME280;7039;52.168;9.866;2023-02-07T04:20:08;103031.94;;;-1.21;82.44
13934;BME280;7039;52.168;9.866;2023-02-07T04:22:36;103047.81;;;-1.09;82.05
13934;BME280;7039;52.168;9.866;2023-02-07T04:25:05;103043.75;;;-1.03;81.63
13934;BME280;7039;52.168;9.866;2023-02-07T04:27:31;103049.38;;;-1.12;81.57
13934;BME280;7039;52.168;9.866;2023-02-07T04:29:58;103051.50;;;-1.02;81.63
13934;BME280;7039;52.168;9.866;2023-02-07T04:32:25;103060.22;;;-0.97;81.47
13934;BME280;7039;52.168;9.866;2023-02-07T04:34:52;103060.16;;;-0.98;81.75
13934;BME280;7039;52.168;9.866;2023-02-07T04:37:18;103053.06;;;-1.06;81.06
13934;BME280;7039;52.168;9.866;2023-02-07T04:39:45;103056.47;;;-1.05;81.46
13934;BME280;7039;52.168;9.866;2023-02-07T04:42:13;103067.47;;;-1.08;81.28
13934;BME280;7039;52.168;9.866;2023-02-07T04:44:39;103059.72;;;-1.09;80.89
13934;BME280;7039;52.168;9.866;2023-02-07T04:47:06;103057.50;;;-1.22;81.14
13934;BME280;7039;52.168;9.866;2023-02-07T04:49:32;103060.06;;;-1.22;81.17
13934;BME280;7039;52.168;9.866;2023-02-07T04:51:59;103047.97;;;-1.48;81.00
13934;BME280;7039;52.168;9.866;2023-02-07T04:54:28;103049.31;;;-1.96;82.84
13934;BME280;7039;52.168;9.866;2023-02-07T04:57:04;103049.63;;;-1.69;83.26
13934;BME280;7039;52.168;9.866;2023-02-07T04:59:32;103047.25;;;-1.64;82.61
13934;BME280;7039;52.168;9.866;2023-02-07T05:01:59;103060.22;;;-1.60;82.42
13934;BME280;7039;52.168;9.866;2023-02-07T05:04:25;103050.94;;;-1.58;81.88
13934;BME280;7039;52.168;9.866;2023-02-07T05:06:52;103046.75;;;-1.77;82.45
13934;BME280;7039;52.168;9.866;2023-02-07T05:09:21;103047.91;;;-1.69;83.37
13934;BME280;7039;52.168;9.866;2023-02-07T05:11:48;103049.41;;;-1.54;82.93
13934;BME280;7039;52.168;9.866;2023-02-07T05:14:15;103048.88;;;-1.45;82.22
13934;BME280;7039;52.168;9.866;2023-02-07T05:16:43;103055.56;;;-1.49;81.97
13934;BME280;7039;52.168;9.866;2023-02-07T05:19:10;103059.94;;;-1.47;81.83
13934;BME280;7039;52.168;9.866;2023-02-07T05:21:37;103049.06;;;-1.62;82.04
13934;BME280;7039;52.168;9.866;2023-02-07T05:24:05;103051.63;;;-1.62;82.47
13934;BME280;7039;52.168;9.866;2023-02-07T05:26:32;103047.31;;;-1.84;82.57
13934;BME280;7039;52.168;9.866;2023-02-07T05:29:02;103044.50;;;-1.69;82.10
13934;BME280;7039;52.168;9.866;2023-02-07T05:31:31;103044.75;;;-1.63;81.87
13934;BME280;7039;52.168;9.866;2023-02-07T05:34:22;103047.91;;;-1.69;81.67
13934;BME280;7039;52.168;9.866;2023-02-07T05:36:49;103051.00;;;-1.56;81.57
13934;BME280;7039;52.168;9.866;2023-02-07T05:39:15;103034.91;;;-1.75;81.11
13934;BME280;7039;52.168;9.866;2023-02-07T05:41:42;103046.66;;;-1.78;81.61
13934;BME280;7039;52.168;9.866;2023-02-07T05:44:10;103045.13;;;-1.75;80.93
13934;BME280;7039;52.168;9.866;2023-02-07T05:46:36;103054.41;;;-1.77;81.63
13934;BME280;7039;52.168;9.866;2023-02-07T05:49:03;103048.59;;;-1.73;81.51
13934;BME280;7039;52.168;9.866;2023-02-07T05:51:31;103049.22;;;-1.78;82.00
13934;BME280;7039;52.168;9.866;2023-02-07T05:54:01;103054.41;;;-1.77;82.17
13934;BME280;7039;52.168;9.866;2023-02-07T05:56:29;103062.47;;;-1.67;82.34
13934;BME280;7039;52.168;9.866;2023-02-07T05:58:55;103056.53;;;-1.66;81.27
13934;BME280;7039;52.168;9.866;2023-02-07T06:01:22;103058.97;;;-1.70;80.99
13934;BME280;7039;52.168;9.866;2023-02-07T06:03:48;103059.06;;;-1.68;81.20
13934;BME280;7039;52.168;9.866;2023-02-07T06:06:15;103071.84;;;-1.68;80.60
13934;BME280;7039;52.168;9.866;2023-02-07T06:08:43;103070.00;;;-1.71;80.71
13934;BME280;7039;52.168;9.866;2023-02-07T06:11:10;103069.06;;;-1.73;80.78
13934;BME280;7039;52.168;9.866;2023-02-07T06:13:36;103064.97;;;-1.69;80.37
13934;BME280;7039;52.168;9.866;2023-02-07T06:16:04;103063.91;;;-1.74;79.99
13934;BME280;7039;52.168;9.866;2023-02-07T06:18:31;103063.03;;;-1.75;79.80
13934;BME280;7039;52.168;9.866;2023-02-07T06:20:57;103064.25;;;-1.86;80.11
13934;BME280;7039;52.168;9.866;2023-02-07T06:23:24;103071.94;;;-1.86;80.46
13934;BME280;7039;52.168;9.866;2023-02-07T06:25:52;103073.66;;;-1.85;80.52
13934;BME280;7039;52.168;9.866;2023-02-07T06:28:18;103069.41;;;-1.84;80.64
13934;BME280;7039;52.168;9.866;2023-02-07T06:30:45;103077.28;;;-1.80;80.42
13934;BME280;7039;52.168;9.866;2023-02-07T06:33:11;103065.13;;;-1.85;80.32
13934;BME280;7039;52.168;9.866;2023-02-07T06:35:38;103068.22;;;-1.93;80.46
13934;BME280;7039;52.168;9.866;2023-02-07T06:38:11;103069.91;;;-1.93;80.77
13934;BME280;7039;52.168;9.866;2023-02-07T06:40:37;103064.84;;;-1.92;80.36
13934;BME280;7039;52.168;9.866;2023-02-07T06:43:05;103079.06;;;-1.79;80.36
13934;BME280;7039;52.168;9.866;2023-02-07T06:45:32;103073.06;;;-1.79;80.70
13934;BME280;7039;52.168;9.866;2023-02-07T06:47:58;103083.75;;;-1.69;80.11
13934;BME280;7039;52.168;9.866;2023-02-07T06:50:25;103083.31;;;-1.79;80.23
13934;BME280;7039;52.168;9.866;2023-02-07T06:52:51;103088.81;;;-1.70;79.90
13934;BME280;7039;52.168;9.866;2023-02-07T06:55:18;103085.44;;;-1.69;80.19
13934;BME280;7039;52.168;9.866;2023-02-07T06:57:45;103093.22;;;-1.66;79.76
13934;BME280;7039;52.168;9.866;2023-02-07T07:00:14;103088.38;;;-1.60;79.77
13934;BME280;7039;52.168;9.866;2023-02-07T07:02:41;103088.09;;;-1.66;79.49
13934;BME280;7039;52.168;9.866;2023-02-07T07:05:07;103086.19;;;-1.72;79.44
13934;BME280;7039;52.168;9.866;2023-02-07T07:07:34;103093.97;;;-1.69;79.37
13934;BME280;7039;52.168;9.866;2023-02-07T07:10:01;103084.84;;;-1.83;79.21
13934;BME280;7039;52.168;9.866;2023-02-07T07:12:27;103083.38;;;-1.97;79.64
13934;BME280;7039;52.168;9.866;2023-02-07T07:14:54;103092.19;;;-1.91;79.72
13934;BME280;7039;52.168;9.866;2023-02-07T07:17:22;103096.97;;;-1.79;80.12
13934;BME280;7039;52.168;9.866;2023-02-07T07:19:48;103104.56;;;-1.80;80.05
13934;BME280;7039;52.168;9.866;2023-02-07T07:22:15;103101.34;;;-1.76;79.64
13934;BME280;7039;52.168;9.866;2023-02-07T07:24:42;103098.91;;;-1.73;79.82
13934;BME280;7039;52.168;9.866;2023-02-07T07:27:08;103104.97;;;-1.71;79.92
13934;BME280;7039;52.168;9.866;2023-02-07T07:29:35;103111.03;;;-1.69;79.73
13934;BME280;7039;52.168;9.866;2023-02-07T07:32:02;103119.09;;;-1.60;79.34
13934;BME280;7039;52.168;9.866;2023-02-07T07:34:30;103117.00;;;-1.69;79.12
13934;BME280;7039;52.168;9.866;2023-02-07T07:36:58;103108.34;;;-1.92;79.88
13934;BME280;7039;52.168;9.866;2023-02-07T07:39:25;103102.53;;;-2.26;80.77
13934;BME280;7039;52.168;9.866;2023-02-07T07:41:51;103108.75;;;-2.02;80.81
13934;BME280;7039;52.168;9.866;2023-02-07T07:44:18;103113.84;;;-1.82;80.53
13934;BME280;7039;52.168;9.866;2023-02-07T07:46:44;103119.31;;;-1.75;80.55
13934;BME280;7039;52.168;9.866;2023-02-07T07:49:11;103122.13;;;-1.69;80.37
13934;BME280;7039;52.168;9.866;2023-02-07T07:51:40;103128.56;;;-1.57;80.19
13934;BME280;7039;52.168;9.866;2023-02-07T07:54:06;103130.72;;;-1.47;79.97
13934;BME280;7039;52.168;9.866;2023-02-07T07:56:33;103124.97;;;-1.41;79.70
13934;BME280;7039;52.168;9.866;2023-02-07T07:59:00;103132.75;;;-1.40;79.82
13934;BME280;7039;52.168;9.866;2023-02-07T08:01:27;103129.06;;;-1.26;79.55
13934;BME280;7039;52.168;9.866;2023-02-07T08:03:53;103127.81;;;-1.35;79.41
13934;BME280;7039;52.168;9.866;2023-02-07T08:06:20;103125.50;;;-1.29;79.29
13934;BME280;7039;52.168;9.866;2023-02-07T08:08:48;103130.81;;;-1.24;79.01
13934;BME280;7039;52.168;9.866;2023-02-07T08:11:14;103139.38;;;-1.24;79.55
13934;BME280;7039;52.168;9.866;2023-02-07T08:13:41;103136.19;;;-1.18;79.63
13934;BME280;7039;52.168;9.866;2023-02-07T08:16:07;103139.75;;;-1.15;79.39
13934;BME280;7039;52.168;9.866;2023-02-07T08:18:35;103136.25;;;-1.17;79.26
13934;BME280;7039;52.168;9.866;2023-02-07T08:21:02;103134.56;;;-1.16;79.40
13934;BME280;7039;52.168;9.866;2023-02-07T08:23:29;103141.56;;;-1.12;79.30
13934;BME280;7039;52.168;9.866;2023-02-07T08:25:57;103143.75;;;-1.00;79.46
13934;BME280;7039;52.168;9.866;2023-02-07T08:28:24;103142.81;;;-1.02;79.44
13934;BME280;7039;52.168;9.866;2023-02-07T08:30:51;103139.25;;;-1.06;79.42
13934;BME280;7039;52.168;9.866;2023-02-07T08:33:17;103134.06;;;-1.08;79.83
13934;BME280;7039;52.168;9.866;2023-02-07T08:35:44;103127.31;;;-1.06;80.37
13934;BME280;7039;52.168;9.866;2023-02-07T08:38:11;103127.97;;;-1.11;80.75
13934;BME280;7039;52.168;9.866;2023-02-07T08:40:37;103123.72;;;-1.11;80.81
13934;BME280;7039;52.168;9.866;2023-02-07T08:43:05;103124.88;;;-1.02;80.76
13934;BME280;7039;52.168;9.866;2023-02-07T08:45:36;103120.03;;;-1.17;80.50
13934;BME280;7039;52.168;9.866;2023-02-07T08:48:03;103117.31;;;-1.20;80.41
13934;BME280;7039;52.168;9.866;2023-02-07T08:50:29;103116.50;;;-0.98;79.85
13934;BME280;7039;52.168;9.866;2023-02-07T08:52:56;103113.84;;;-1.01;79.99
13934;BME280;7039;52.168;9.866;2023-02-07T08:55:22;103111.53;;;-0.95;79.99
13934;BME280;7039;52.168;9.866;2023-02-07T08:57:52;103118.69;;;-0.66;79.70
13934;BME280;7039;52.168;9.866;2023-02-07T09:00:21;103112.97;;;-0.58;79.07
13934;BME280;7039;52.168;9.866;2023-02-07T09:02:48;103120.06;;;-0.51;78.43
13934;BME280;7039;52.168;9.866;2023-02-07T09:05:15;103122.41;;;-0.35;78.27
13934;BME280;7039;52.168;9.866;2023-02-07T09:07:41;103121.78;;;-0.29;77.91
13934;BME280;7039;52.168;9.866;2023-02-07T09:10:08;103127.09;;;-0.23;77.90
13934;BME280;7039;52.168;9.866;2023-02-07T09:12:36;103125.22;;;-0.05;78.12
13934;BME280;7039;52.168;9.866;2023-02-07T09:15:03;103131.19;;;-0.06;77.88
13934;BME280;7039;52.168;9.866;2023-02-07T09:17:31;103136.88;;;0.10;77.34
13934;BME280;7039;52.168;9.866;2023-02-07T09:19:58;103132.88;;;0.18;77.24
13934;BME280;7039;52.168;9.866;2023-02-07T09:22:24;103139.22;;;0.28;76.99
13934;BME280;7039;52.168;9.866;2023-02-07T09:24:51;103137.75;;;0.34;76.70
13934;BME280;7039;52.168;9.866;2023-02-07T09:27:18;103135.06;;;0.31;76.10
13934;BME280;7039;52.168;9.866;2023-02-07T09:29:44;103121.91;;;0.22;75.78
13934;BME280;7039;52.168;9.866;2023-02-07T09:32:11;103135.50;;;0.44;76.30
13934;BME280;7039;52.168;9.866;2023-02-07T09:34:39;103130.88;;;0.59;76.15
13934;BME280;7039;52.168;9.866;2023-02-07T09:37:05;103122.38;;;0.60;76.08
13934;BME280;7039;52.168;9.866;2023-02-07T09:39:35;103120.13;;;0.69;75.44
13934;BME280;7039;52.168;9.866;2023-02-07T09:42:10;103119.06;;;0.38;74.61
13934;BME280;7039;52.168;9.866;2023-02-07T09:44:48;103125.28;;;0.45;74.36
13934;BME280;7039;52.168;9.866;2023-02-07T09:47:20;103121.34;;;0.55;74.00
13934;BME280;7039;52.168;9.866;2023-02-07T09:49:51;103117.75;;;0.75;73.95
13934;BME280;7039;52.168;9.866;2023-02-07T09:52:23;103128.28;;;0.83;73.90
13934;BME280;7039;52.168;9.866;2023-02-07T09:54:52;103123.75;;;0.76;73.60
13934;BME280;7039;52.168;9.866;2023-02-07T09:57:22;103126.63;;;0.85;73.65
13934;BME280;7039;52.168;9.866;2023-02-07T09:59:53;103132.91;;;0.93;73.34
13934;BME280;7039;52.168;9.866;2023-02-07T10:02:24;103120.72;;;1.15;73.12
13934;BME280;7039;52.168;9.866;2023-02-07T10:05:00;103126.66;;;1.12;73.06
13934;BME280;7039;52.168;9.866;2023-02-07T10:07:28;103123.59;;;0.97;73.45
13934;BME280;7039;52.168;9.866;2023-02-07T10:09:56;103126.44;;;1.06;73.60
13934;BME280;7039;52.168;9.866;2023-02-07T10:12:51;103122.28;;;1.37;72.58
13934;BME280;7039;52.168;9.866;2023-02-07T10:15:33;103117.66;;;1.27;73.04
13934;BME280;7039;52.168;9.866;2023-02-07T10:18:14;103115.72;;;1.46;73.23
13934;BME280;7039;52.168;9.866;2023-02-07T10:20:49;103111.03;;;1.33;72.12
13934;BME280;7039;52.168;9.866;2023-02-07T10:23:29;103108.78;;;1.44;71.54
13934;BME280;7039;52.168;9.866;2023-02-07T10:26:03;103113.00;;;1.71;71.51
13934;BME280;7039;52.168;9.866;2023-02-07T10:29:02;103119.69;;;1.65;71.13
13934;BME280;7039;52.168;9.866;2023-02-07T10:31:32;103113.75;;;1.66;71.02
13934;BME280;7039;52.168;9.866;2023-02-07T10:34:10;103119.75;;;1.96;71.23
13934;BME280;7039;52.168;9.866;2023-02-07T10:36:44;103119.81;;;1.99;70.92
13934;BME280;7039;52.168;9.866;2023-02-07T10:39:16;103122.09;;;2.20;71.00
13934;BME280;7039;52.168;9.866;2023-02-07T10:41:44;103117.19;;;2.27;70.71
13934;BME280;7039;52.168;9.866;2023-02-07T10:44:12;103112.81;;;1.93;70.78
13934;BME280;7039;52.168;9.866;2023-02-07T10:46:40;103112.75;;;1.92;71.40
13934;BME280;7039;52.168;9.866;2023-02-07T10:49:15;103120.25;;;2.14;72.05
13934;BME280;7039;52.168;9.866;2023-02-07T10:51:45;103117.06;;;2.23;71.66
13934;BME280;7039;52.168;9.866;2023-02-07T10:54:12;103119.63;;;2.23;72.02
13934;BME280;7039;52.168;9.866;2023-02-07T10:56:42;103122.16;;;2.21;72.60
13934;BME280;7039;52.168;9.866;2023-02-07T10:59:31;103118.66;;;2.51;72.24
13934;BME280;7039;52.168;9.866;2023-02-07T11:02:00;103120.91;;;2.39;72.23
13934;BME280;7039;52.168;9.866;2023-02-07T11:04:33;103131.22;;;2.40;72.52
13934;BME280;7039;52.168;9.866;2023-02-07T11:07:04;103131.19;;;2.72;71.65
13934;BME280;7039;52.168;9.866;2023-02-07T11:09:32;103121.56;;;2.65;70.87
13934;BME280;7039;52.168;9.866;2023-02-07T11:12:12;103117.97;;;2.58;71.22
13934;BME280;7039;52.168;9.866;2023-02-07T11:14:39;103117.44;;;2.71;70.70
13934;BME280;7039;52.168;9.866;2023-02-07T11:17:06;103111.88;;;2.55;70.77
13934;BME280;7039;52.168;9.866;2023-02-07T11:19:32;103117.41;;;2.70;70.14
13934;BME280;7039;52.168;9.866;2023-02-07T11:22:08;103119.84;;;2.99;69.21
13934;BME280;7039;52.168;9.866;2023-02-07T11:24:36;103110.88;;;2.83;68.38
13934;BME280;7039;52.168;9.866;2023-02-07T11:29:46;103107.81;;;2.98;68.21
13934;BME280;7039;52.168;9.866;2023-02-07T13:42:22;103013.28;;;8.03;47.12
13934;BME280;7039;52.168;9.866;2023-02-07T14:22:24;103007.88;;;9.54;44.57
13934;BME280;7039;52.168;9.866;2023-02-07T14:25:35;103005.22;;;9.60;44.75
13934;BME280;7039;52.168;9.866;2023-02-07T14:28:33;103006.91;;;9.73;44.15
13934;BME280;7039;52.168;9.866;2023-02-07T14:31:29;103007.81;;;9.68;43.11
13934;BME280;7039;52.168;9.866;2023-02-07T14:36:36;103009.91;;;10.41;40.69
13934;BME280;7039;52.168;9.866;2023-02-07T15:44:06;102969.06;;;7.71;48.32
13934;BME280;7039;52.168;9.866;2023-02-07T15:46:43;102976.06;;;8.36;47.22
13934;BME280;7039;52.168;9.866;2023-02-07T15:49:25;102974.28;;;8.86;47.33
13934;BME280;7039;52.168;9.866;2023-02-07T15:51:53;102986.44;;;8.84;46.89
13934;BME280;7039;52.168;9.866;2023-02-07T15:54:22;102978.63;;;8.78;47.02
13934;BME280;7039;52.168;9.866;2023-02-07T15:56:55;102970.84;;;8.70;47.10
13934;BME280;7039;52.168;9.866;2023-02-07T15:59:27;102968.25;;;8.29;47.37
13934;BME280;7039;52.168;9.866;2023-02-07T16:01:56;102969.03;;;7.54;47.91
13934;BME280;7039;52.168;9.866;2023-02-07T16:04:24;102953.13;;;6.76;50.20
13934;BME280;7039;52.168;9.866;2023-02-07T16:06:58;102953.63;;;6.24;52.45
13934;BME280;7039;52.168;9.866;2023-02-07T16:09:39;102959.28;;;5.83;53.54
13934;BME280;7039;52.168;9.866;2023-02-07T16:12:31;102957.97;;;5.42;54.23
13934;BME280;7039;52.168;9.866;2023-02-07T16:15:00;102952.47;;;5.15;55.36
13934;BME280;7039;52.168;9.866;2023-02-07T16:17:37;102950.75;;;4.51;57.21
13934;BME280;7039;52.168;9.866;2023-02-07T16:20:08;102947.97;;;4.39;57.78
13934;BME280;7039;52.168;9.866;2023-02-07T16:22:34;102956.22;;;4.16;58.88
13934;BME280;7039;52.168;9.866;2023-02-07T16:25:01;102948.22;;;4.01;58.64
13934;BME280;7039;52.168;9.866;2023-02-07T16:27:29;102961.31;;;4.12;59.23
13934;BME280;7039;52.168;9.866;2023-02-07T16:30:00;102950.13;;;4.11;59.04
13934;BME280;7039;52.168;9.866;2023-02-07T16:32:31;102951.56;;;3.95;61.02
13934;BME280;7039;52.168;9.866;2023-02-07T16:34:58;102943.56;;;3.80;60.04
13934;BME280;7039;52.168;9.866;2023-02-07T16:37:25;102936.91;;;3.46;60.79
13934;BME280;7039;52.168;9.866;2023-02-07T16:39:51;102941.94;;;3.40;61.37
13934;BME280;7039;52.168;9.866;2023-02-07T16:42:18;102944.50;;;3.40;61.55
13934;BME280;7039;52.168;9.866;2023-02-07T16:44:45;102948.94;;;3.45;61.83
13934;BME280;7039;52.168;9.866;2023-02-07T16:47:13;102935.69;;;3.28;63.22
13934;BME280;7039;52.168;9.866;2023-02-07T16:49:41;102937.94;;;3.13;63.85
13934;BME280;7039;52.168;9.866;2023-02-07T16:52:09;102942.25;;;3.12;64.49
13934;BME280;7039;52.168;9.866;2023-02-07T16:54:35;102948.25;;;3.11;63.85
13934;BME280;7039;52.168;9.866;2023-02-07T17:15:31;102950.72;;;2.31;66.89
13934;BME280;7039;52.168;9.866;2023-02-07T17:17:58;102949.66;;;2.21;67.18
13934;BME280;7039;52.168;9.866;2023-02-07T17:20:26;102938.16;;;2.07;67.01
13934;BME280;7039;52.168;9.866;2023-02-07T17:22:53;102948.28;;;2.01;67.57
13934;BME280;7039;52.168;9.866;2023-02-07T17:25:22;102949.09;;;2.00;67.77
13934;BME280;7039;52.168;9.866;2023-02-07T17:27:49;102943.84;;;1.62;68.67
13934;BME280;7039;52.168;9.866;2023-02-07T17:30:22;102947.66;;;1.76;69.72
13934;BME280;7039;52.168;9.866;2023-02-07T17:46:41;102960.44;;;1.43;70.06
13934;BME280;7039;52.168;9.866;2023-02-07T17:49:12;102965.56;;;1.41;70.18
13934;BME280;7039;52.168;9.866;2023-02-07T17:51:40;102970.19;;;1.53;70.49
13934;BME280;7039;52.168;9.866;2023-02-07T17:56:42;102968.59;;;1.58;70.11